Time;durP1;ratioP1;P1;durP2;ratioP2;P2;SDS_P1;SDS_P2;PMS_P1;PMS_P2;Temp;Humidity;BMP_temperature;BMP_pressure;BME280_temperature;BME280_humidity;BME280_pressure;Samples;Min_cycle;Max_cycle;Signal;HPM_P1;HPM_P2
2023/06/28 00:00:36;;;;;;;7.82;2.63;;;;;;;14.04;100.00;100820.72;6091875;29;20235;-92
2023/06/28 00:03:38;;;;;;;3.90;1.65;;;;;;;13.97;100.00;100820.44;6105222;29;20051;-93
2023/06/28 00:06:40;;;;;;;5.85;2.67;;;;;;;14.00;100.00;100824.53;6104195;29;20311;-92
2023/06/28 00:09:42;;;;;;;6.28;1.95;;;;;;;13.96;100.00;100821.41;6094659;29;20054;-93
2023/06/28 00:12:44;;;;;;;6.65;2.08;;;;;;;13.99;100.00;100828.13;6112401;29;20063;-92
2023/06/28 00:15:45;;;;;;;6.28;2.15;;;;;;;13.98;100.00;100824.66;6104442;29;20042;-92
2023/06/28 00:18:47;;;;;;;4.93;2.60;;;;;;;13.97;100.00;100830.84;6103978;29;20098;-92
2023/06/28 00:21:49;;;;;;;6.32;2.40;;;;;;;13.95;100.00;100840.56;6115587;29;20058;-91
2023/06/28 00:24:50;;;;;;;5.93;2.45;;;;;;;13.93;100.00;100833.84;6107127;29;20103;-92
2023/06/28 00:27:52;;;;;;;4.82;1.90;;;;;;;13.93;100.00;100837.25;6105613;29;20048;-94
2023/06/28 00:30:54;;;;;;;7.05;2.00;;;;;;;13.90;100.00;100829.72;6104172;29;20055;-91
2023/06/28 00:33:55;;;;;;;5.05;2.13;;;;;;;13.93;100.00;100833.84;6112458;29;20508;-92
2023/06/28 00:36:57;;;;;;;4.63;2.30;;;;;;;13.95;100.00;100839.75;6110113;29;20494;-92
2023/06/28 00:40:00;;;;;;;7.63;2.53;;;;;;;13.93;100.00;100839.88;6112770;29;20379;-93
2023/06/28 00:43:04;;;;;;;7.75;2.35;;;;;;;13.90;100.00;100840.16;6097769;29;20632;-92
2023/06/28 00:46:06;;;;;;;5.90;2.13;;;;;;;13.91;100.00;100841.81;6112639;29;20047;-91
2023/06/28 00:49:08;;;;;;;5.18;2.20;;;;;;;13.90;100.00;100840.16;6116758;29;20182;-91
2023/06/28 00:52:12;;;;;;;10.07;2.67;;;;;;;13.89;100.00;100842.91;6107088;29;20044;-93
2023/06/28 00:55:14;;;;;;;5.57;2.85;;;;;;;13.86;100.00;100838.75;6096031;29;20525;-92
2023/06/28 00:58:16;;;;;;;10.23;2.40;;;;;;;14.06;100.00;100842.22;6112036;29;20785;-92
2023/06/28 01:01:18;;;;;;;5.55;2.45;;;;;;;14.07;100.00;100848.25;6097173;29;20537;-92
2023/06/28 01:04:20;;;;;;;4.95;2.17;;;;;;;14.06;100.00;100841.38;6110939;29;20145;-92
2023/06/28 01:07:22;;;;;;;6.32;2.20;;;;;;;14.04;100.00;100844.16;6110596;29;20167;-92
2023/06/28 01:10:25;;;;;;;7.50;2.67;;;;;;;14.03;100.00;100842.47;6112710;29;20040;-93
2023/06/28 01:13:27;;;;;;;5.82;2.30;;;;;;;14.02;100.00;100850.44;6103407;29;20081;-92
2023/06/28 01:16:30;;;;;;;5.22;3.20;;;;;;;13.99;100.00;100854.97;6103698;29;20130;-92
2023/06/28 01:19:32;;;;;;;6.53;2.70;;;;;;;13.99;100.00;100852.34;6091681;29;20044;-92
2023/06/28 01:22:35;;;;;;;8.27;3.00;;;;;;;13.99;100.00;100854.13;6095042;29;20051;-93
2023/06/28 01:25:39;;;;;;;7.90;2.30;;;;;;;13.98;100.00;100868.09;6106331;29;20066;-92
2023/06/28 01:28:41;;;;;;;9.23;2.95;;;;;;;13.93;100.00;100857.28;6100710;29;20414;-92
2023/06/28 01:31:43;;;;;;;3.05;2.25;;;;;;;13.82;100.00;100855.63;6106249;29;20044;-92
2023/06/28 01:34:45;;;;;;;4.68;2.38;;;;;;;13.79;100.00;100866.31;6137617;28;20052;-93
2023/06/28 01:37:47;;;;;;;8.10;2.75;;;;;;;13.79;100.00;100867.13;6108258;29;20502;-92
2023/06/28 01:40:52;;;;;;;6.95;2.42;;;;;;;13.79;100.00;100863.69;6117782;29;20751;-92
2023/06/28 01:43:54;;;;;;;8.30;2.85;;;;;;;13.87;100.00;100863.84;6116441;29;20430;-92
2023/06/28 01:46:58;;;;;;;7.57;2.85;;;;;;;13.90;100.00;100860.97;6116126;29;20138;-93
2023/06/28 01:50:01;;;;;;;8.80;2.83;;;;;;;13.96;100.00;100860.44;6115844;29;20048;-92
2023/06/28 01:53:07;;;;;;;6.05;2.63;;;;;;;13.98;100.00;100871.50;6108229;29;20051;-92
2023/06/28 01:56:10;;;;;;;6.03;2.80;;;;;;;14.00;100.00;100868.78;6116415;29;20098;-92
2023/06/28 01:59:12;;;;;;;5.43;2.72;;;;;;;13.98;100.00;100871.50;6114967;29;20678;-93
2023/06/28 02:02:13;;;;;;;3.75;2.40;;;;;;;14.00;100.00;100861.78;6117001;29;20054;-91
2023/06/28 02:05:16;;;;;;;10.23;2.38;;;;;;;14.01;100.00;100870.41;6115470;29;20047;-93
2023/06/28 02:08:17;;;;;;;6.50;2.63;;;;;;;14.02;100.00;100860.84;6096484;29;20054;-92
2023/06/28 02:11:19;;;;;;;5.28;2.63;;;;;;;13.99;100.00;100865.38;6105121;29;20391;-92
2023/06/28 02:14:21;;;;;;;6.05;2.47;;;;;;;14.01;100.00;100862.63;6093272;29;20411;-93
2023/06/28 02:17:24;;;;;;;5.95;2.78;;;;;;;14.00;100.00;100858.38;6121727;28;20044;-92
2023/06/28 02:20:28;;;;;;;7.60;2.47;;;;;;;13.93;100.00;100863.28;6116434;29;20138;-92
2023/06/28 02:23:30;;;;;;;7.10;2.83;;;;;;;13.86;100.00;100863.97;6115749;29;20040;-94
2023/06/28 02:26:34;;;;;;;7.68;2.50;;;;;;;13.87;100.00;100860.41;6110311;29;20047;-93
2023/06/28 02:29:37;;;;;;;7.22;2.50;;;;;;;13.77;100.00;100863.00;6114277;29;20325;-92
2023/06/28 02:32:40;;;;;;;5.47;2.78;;;;;;;13.74;100.00;100858.88;6109888;29;20474;-92
2023/06/28 02:35:41;;;;;;;5.65;2.50;;;;;;;13.78;100.00;100860.25;6109239;29;20058;-92
2023/06/28 02:38:45;;;;;;;7.38;3.05;;;;;;;13.81;100.00;100859.16;6110214;29;20536;-92
2023/06/28 02:41:47;;;;;;;3.83;2.45;;;;;;;13.77;100.00;100860.41;6104837;29;20043;-92
2023/06/28 02:44:49;;;;;;;5.18;2.60;;;;;;;13.73;100.00;100854.63;6087421;29;20626;-91
2023/06/28 02:47:51;;;;;;;5.35;2.55;;;;;;;13.72;100.00;100860.78;6113751;29;20051;-92
2023/06/28 02:50:53;;;;;;;5.65;2.85;;;;;;;13.75;100.00;100867.50;6103241;29;20048;-91
2023/06/28 02:53:55;;;;;;;7.70;3.38;;;;;;;13.79;100.00;100872.31;6113798;29;20272;-92
2023/06/28 02:56:57;;;;;;;5.18;2.70;;;;;;;13.83;100.00;100865.06;6105651;29;20422;-91
2023/06/28 03:00:15;;;;;;;6.13;2.78;;;;;;;13.79;100.00;100864.50;6090447;29;20467;-92
2023/06/28 03:03:17;;;;;;;7.68;3.15;;;;;;;13.27;100.00;100875.97;6113116;29;20050;-91
2023/06/28 03:06:19;;;;;;;5.93;3.33;;;;;;;13.87;100.00;100876.03;6115491;29;20156;-92
2023/06/28 03:09:21;;;;;;;8.48;3.17;;;;;;;13.92;100.00;100871.25;6115543;29;20301;-92
2023/06/28 03:12:23;;;;;;;7.00;3.40;;;;;;;13.98;100.00;100871.50;6117443;29;20032;-91
2023/06/28 03:15:24;;;;;;;10.27;3.05;;;;;;;14.03;100.00;100876.31;6103853;29;20509;-92
2023/06/28 03:18:27;;;;;;;9.90;3.15;;;;;;;14.03;100.00;100863.31;6115351;29;20114;-92
2023/06/28 03:21:30;;;;;;;5.28;2.90;;;;;;;14.07;100.00;100880.31;6116469;29;20052;-91
2023/06/28 03:24:32;;;;;;;7.90;3.08;;;;;;;14.07;100.00;100871.69;6101106;29;20235;-92
2023/06/28 03:27:34;;;;;;;8.15;2.97;;;;;;;14.11;100.00;100873.03;6114414;29;20044;-91
2023/06/28 03:30:39;;;;;;;7.13;2.95;;;;;;;14.09;100.00;100874.97;6099804;29;20062;-91
2023/06/28 03:33:41;;;;;;;6.07;2.70;;;;;;;14.13;100.00;100869.34;6103877;29;20052;-92
2023/06/28 03:36:43;;;;;;;7.95;2.90;;;;;;;14.06;100.00;100875.22;6107075;29;20079;-91
2023/06/28 03:40:04;;;;;;;6.70;2.90;;;;;;;14.06;100.00;100877.84;6114777;29;20043;-92
2023/06/28 03:43:06;;;;;;;6.68;2.75;;;;;;;14.04;100.00;100871.97;6114988;29;20039;-92
2023/06/28 03:46:08;;;;;;;7.63;3.22;;;;;;;14.04;100.00;100867.56;6115837;29;20157;-91
2023/06/28 03:49:10;;;;;;;6.53;2.72;;;;;;;14.07;100.00;100869.09;6115868;29;20433;-91
2023/06/28 03:52:12;;;;;;;6.18;3.25;;;;;;;14.08;100.00;100862.91;6089677;29;20573;-92
2023/06/28 03:55:16;;;;;;;3.42;2.50;;;;;;;14.06;100.00;100865.66;6108766;29;20414;-92
2023/06/28 03:58:18;;;;;;;5.38;2.90;;;;;;;14.07;100.00;100858.66;6114190;29;20580;-92
2023/06/28 04:01:19;;;;;;;3.38;2.75;;;;;;;14.06;100.00;100859.59;6116878;29;20047;-92
2023/06/28 04:04:21;;;;;;;5.13;2.78;;;;;;;14.11;100.00;100865.22;6108465;29;20046;-92
2023/06/28 04:07:24;;;;;;;5.18;2.78;;;;;;;14.16;100.00;100865.66;6114176;29;20067;-92
2023/06/28 04:10:27;;;;;;;6.38;2.78;;;;;;;14.13;100.00;100861.53;6116769;29;20048;-92
2023/06/28 04:13:29;;;;;;;8.65;2.92;;;;;;;14.16;100.00;100857.84;6112629;29;20063;-92
2023/06/28 04:16:30;;;;;;;4.20;2.47;;;;;;;14.20;100.00;100870.44;6115179;29;20042;-92
2023/06/28 04:19:33;;;;;;;6.72;3.00;;;;;;;14.21;100.00;100877.31;6117400;29;20051;-92
2023/06/28 04:22:35;;;;;;;6.10;3.20;;;;;;;14.24;100.00;100871.00;6108502;29;20510;-92
2023/06/28 04:25:37;;;;;;;9.50;2.97;;;;;;;14.30;100.00;100867.84;6109232;29;20214;-92
2023/06/28 04:28:39;;;;;;;5.28;3.10;;;;;;;14.35;100.00;100875.25;6115560;29;20071;-92
2023/06/28 04:31:41;;;;;;;6.80;2.90;;;;;;;14.38;100.00;100874.97;6105148;29;20074;-92
2023/06/28 04:34:43;;;;;;;7.95;3.10;;;;;;;14.36;100.00;100877.72;6113807;29;20040;-92
2023/06/28 04:38:04;;;;;;;6.03;2.92;;;;;;;14.36;100.00;100871.69;6111801;29;20055;-92
2023/06/28 04:41:05;;;;;;;6.53;2.90;;;;;;;14.38;100.00;100877.56;6114331;29;20077;-92
2023/06/28 04:44:09;;;;;;;5.43;2.70;;;;;;;14.40;100.00;100873.88;6114755;29;20048;-92
2023/06/28 04:47:15;;;;;;;5.70;2.85;;;;;;;14.47;100.00;100875.94;6103106;29;20467;-92
2023/06/28 04:50:18;;;;;;;8.82;2.72;;;;;;;14.50;100.00;100875.66;6103108;29;20497;-92
2023/06/28 04:53:20;;;;;;;5.60;2.90;;;;;;;14.40;100.00;100871.28;6114005;29;20048;-93
2023/06/28 04:56:22;;;;;;;8.68;2.90;;;;;;;14.38;100.00;100880.19;6115366;29;20040;-91
2023/06/28 04:59:24;;;;;;;8.38;3.10;;;;;;;14.42;100.00;100878.97;6124853;29;20047;-92
2023/06/28 05:02:26;;;;;;;10.20;3.42;;;;;;;14.49;100.00;100869.63;6115788;29;20139;-92
2023/06/28 05:05:29;;;;;;;8.63;3.17;;;;;;;14.52;100.00;100868.53;6117169;29;20035;-93
2023/06/28 05:08:31;;;;;;;4.32;2.85;;;;;;;14.60;100.00;100877.31;6122783;28;20134;-93
2023/06/28 05:11:32;;;;;;;5.90;3.00;;;;;;;14.71;100.00;100868.56;6117090;29;20043;-92
2023/06/28 05:14:35;;;;;;;7.18;2.97;;;;;;;14.80;100.00;100878.13;6119579;29;20099;-91
2023/06/28 05:17:37;;;;;;;7.30;2.70;;;;;;;14.89;100.00;100862.63;6109195;29;20051;-91
2023/06/28 05:20:39;;;;;;;9.90;2.92;;;;;;;14.93;100.00;100871.78;6116514;29;20050;-91
2023/06/28 05:23:41;;;;;;;6.65;2.63;;;;;;;15.02;100.00;100874.38;6118657;29;20044;-92
2023/06/28 05:26:43;;;;;;;6.53;3.03;;;;;;;15.16;100.00;100867.88;6116518;29;20059;-91
2023/06/28 05:29:45;;;;;;;7.55;2.80;;;;;;;15.22;100.00;100874.31;6118257;29;20043;-92
2023/06/28 05:32:46;;;;;;;6.30;2.92;;;;;;;15.37;100.00;100865.03;6110507;29;20044;-90
2023/06/28 05:35:49;;;;;;;8.73;3.42;;;;;;;15.45;100.00;100856.50;6108679;29;20079;-89
2023/06/28 05:38:52;;;;;;;9.27;3.25;;;;;;;15.49;100.00;100863.91;6116419;29;20047;-92
2023/06/28 05:41:55;;;;;;;6.95;2.75;;;;;;;15.56;100.00;100869.38;6118585;29;20044;-91
2023/06/28 05:44:57;;;;;;;4.72;3.30;;;;;;;15.58;100.00;100866.63;6119300;29;20693;-92
2023/06/28 05:47:59;;;;;;;5.88;2.50;;;;;;;15.63;100.00;100861.78;6116434;29;20043;-91
2023/06/28 05:51:02;;;;;;;5.78;2.67;;;;;;;15.71;100.00;100861.91;6116280;29;20035;-92
2023/06/28 05:54:04;;;;;;;8.07;2.83;;;;;;;15.78;100.00;100862.16;6119181;29;20051;-92
2023/06/28 05:57:07;;;;;;;7.55;2.60;;;;;;;15.89;100.00;100864.53;6119561;29;20082;-93
2023/06/28 06:00:10;;;;;;;8.25;2.75;;;;;;;15.94;100.00;100863.13;6113732;29;20051;-91
2023/06/28 06:03:11;;;;;;;12.80;3.00;;;;;;;15.97;100.00;100850.75;6101727;29;20413;-91
2023/06/28 06:06:14;;;;;;;8.50;2.80;;;;;;;15.96;100.00;100851.72;6119193;29;20510;-92
2023/06/28 06:09:16;;;;;;;8.38;2.90;;;;;;;16.03;100.00;100850.16;6117499;29;20502;-92
2023/06/28 06:12:18;;;;;;;8.98;2.83;;;;;;;15.98;100.00;100858.44;6113048;29;20168;-90
2023/06/28 06:15:20;;;;;;;7.07;2.40;;;;;;;16.07;100.00;100851.47;6119133;29;20106;-92
2023/06/28 06:18:22;;;;;;;7.85;2.78;;;;;;;16.12;100.00;100850.09;6112663;29;20432;-91
2023/06/28 06:21:24;;;;;;;6.40;2.60;;;;;;;16.15;100.00;100848.97;6111527;29;20542;-91
2023/06/28 06:24:25;;;;;;;6.65;2.88;;;;;;;16.15;100.00;100848.97;6119080;29;20047;-91
2023/06/28 06:27:29;;;;;;;9.73;2.70;;;;;;;16.18;100.00;100853.06;6112101;29;20066;-90
2023/06/28 06:30:30;;;;;;;9.98;2.90;;;;;;;16.26;100.00;100856.56;6116596;29;20050;-90
2023/06/28 06:33:35;;;;;;;7.97;2.60;;;;;;;16.37;100.00;100852.88;6115206;29;20450;-89
2023/06/28 06:36:37;;;;;;;10.98;2.80;;;;;;;16.34;100.00;100864.47;6115157;29;20043;-91
2023/06/28 06:39:40;;;;;;;4.10;2.25;;;;;;;16.30;100.00;100854.50;6115070;29;20397;-91
2023/06/28 06:42:42;;;;;;;9.98;2.20;;;;;;;16.40;100.00;100855.22;6115348;29;20047;-91
2023/06/28 06:45:44;;;;;;;6.97;2.20;;;;;;;16.52;100.00;100854.00;6116803;29;20693;-91
2023/06/28 06:48:47;;;;;;;5.35;2.00;;;;;;;16.60;100.00;100863.69;6116386;29;20203;-91
2023/06/28 06:51:49;;;;;;;8.40;2.15;;;;;;;16.64;100.00;100858.97;6115244;29;20043;-90
2023/06/28 06:54:51;;;;;;;6.13;2.20;;;;;;;16.65;100.00;100860.63;6116128;29;20048;-92
2023/06/28 06:57:52;;;;;;;6.68;2.10;;;;;;;16.73;100.00;100866.72;6116111;29;20054;-90
2023/06/28 07:00:54;;;;;;;5.60;2.10;;;;;;;16.85;100.00;100867.34;6115385;29;20173;-90
2023/06/28 07:03:56;;;;;;;6.38;1.90;;;;;;;16.84;100.00;100870.91;6115525;29;20142;-90
2023/06/28 07:06:58;;;;;;;3.45;1.92;;;;;;;16.87;100.00;100872.41;6102353;29;20167;-91
2023/06/28 07:10:00;;;;;;;5.88;1.80;;;;;;;16.93;100.00;100882.25;6096884;29;20522;-90
2023/06/28 07:13:03;;;;;;;4.88;1.85;;;;;;;17.04;100.00;100876.75;6115669;29;20383;-90
2023/06/28 07:16:05;;;;;;;4.03;1.70;;;;;;;17.14;100.00;100879.25;6103897;29;20510;-88
2023/06/28 07:19:06;;;;;;;6.22;2.00;;;;;;;17.16;100.00;100872.91;6101056;29;20134;-90
2023/06/28 07:22:08;;;;;;;5.95;1.92;;;;;;;17.16;100.00;100879.94;6113525;29;20044;-90
2023/06/28 07:25:10;;;;;;;8.18;2.10;;;;;;;17.23;100.00;100880.94;6103564;29;20039;-90
2023/06/28 07:28:12;;;;;;;3.88;1.58;;;;;;;17.32;100.00;100887.88;6105029;29;20146;-91
2023/06/28 07:31:14;;;;;;;7.28;2.10;;;;;;;17.33;100.00;100883.44;6104780;29;20036;-91
2023/06/28 07:34:16;;;;;;;5.22;1.77;;;;;;;17.42;100.00;100891.19;6094574;29;20650;-90
2023/06/28 07:37:17;;;;;;;5.70;1.63;;;;;;;17.55;100.00;100882.06;6103485;29;20545;-89
2023/06/28 07:40:19;;;;;;;2.60;1.42;;;;;;;17.60;100.00;100882.41;6107590;29;20095;-91
2023/06/28 07:43:21;;;;;;;3.30;1.77;;;;;;;17.63;100.00;100888.16;6117189;29;20517;-90
2023/06/28 07:46:24;;;;;;;2.80;1.35;;;;;;;17.70;100.00;100877.88;6117403;29;20032;-90
2023/06/28 07:49:26;;;;;;;3.92;1.27;;;;;;;17.73;100.00;100876.72;6119727;28;20044;-90
2023/06/28 07:52:27;;;;;;;3.17;1.70;;;;;;;17.72;100.00;100872.50;6092113;29;20070;-91
2023/06/28 07:55:30;;;;;;;3.40;1.30;;;;;;;17.76;100.00;100882.50;6108254;29;20134;-91
2023/06/28 07:58:35;;;;;;;6.30;1.55;;;;;;;17.78;100.00;100877.88;6101908;29;20514;-92
2023/06/28 08:01:37;;;;;;;5.15;1.58;;;;;;;17.84;100.00;100882.53;6096982;29;20478;-91
2023/06/28 08:04:39;;;;;;;3.30;1.20;;;;;;;17.83;100.00;100874.81;6101917;29;20050;-91
2023/06/28 08:07:41;;;;;;;3.83;1.10;;;;;;;17.89;100.00;100873.34;6110064;29;20036;-92
2023/06/28 08:10:43;;;;;;;5.13;1.30;;;;;;;18.00;100.00;100883.53;6094979;29;20517;-89
2023/06/28 08:13:45;;;;;;;3.00;1.35;;;;;;;18.08;100.00;100889.59;6105306;29;20048;-93
2023/06/28 08:16:47;;;;;;;2.97;1.20;;;;;;;18.08;100.00;100881.75;6107015;29;21248;-91
2023/06/28 08:19:49;;;;;;;4.13;1.10;;;;;;;18.04;100.00;100877.00;6103338;29;20483;-91
2023/06/28 08:22:51;;;;;;;4.60;1.42;;;;;;;18.10;100.00;100878.97;6105497;29;20027;-92
2023/06/28 08:25:53;;;;;;;4.60;1.38;;;;;;;18.25;100.00;100877.34;6103747;29;20291;-89
2023/06/28 08:28:55;;;;;;;4.25;1.30;;;;;;;18.35;100.00;100874.56;6109201;29;20044;-90
2023/06/28 08:32:01;;;;;;;3.65;1.20;;;;;;;18.48;100.00;100882.78;6096089;29;20040;-91
2023/06/28 08:35:04;;;;;;;4.55;1.30;;;;;;;18.60;100.00;100892.94;6098327;29;20192;-90
2023/06/28 08:38:06;;;;;;;3.58;1.40;;;;;;;18.68;100.00;100882.41;6114502;29;20035;-91
2023/06/28 08:41:08;;;;;;;2.40;1.30;;;;;;;18.78;100.00;100877.03;6110052;29;20040;-91
2023/06/28 08:44:14;;;;;;;5.80;1.42;;;;;;;18.86;100.00;100879.66;6107663;29;20257;-91
2023/06/28 08:47:16;;;;;;;5.20;1.40;;;;;;;18.90;100.00;100878.31;6100584;29;21085;-91
2023/06/28 08:50:18;;;;;;;1.90;1.25;;;;;;;18.92;100.00;100879.78;6113750;29;20146;-92
2023/06/28 08:53:23;;;;;;;3.83;1.58;;;;;;;19.03;100.00;100875.19;6109624;29;20514;-91
2023/06/28 08:56:27;;;;;;;5.55;1.83;;;;;;;19.11;100.00;100873.38;6112638;29;20051;-91
2023/06/28 08:59:30;;;;;;;3.75;1.40;;;;;;;19.08;100.00;100872.88;6111944;29;20056;-92
2023/06/28 09:02:33;;;;;;;3.67;1.48;;;;;;;19.06;100.00;100864.38;6115211;29;20126;-90
2023/06/28 09:05:36;;;;;;;2.47;1.33;;;;;;;19.08;100.00;100870.25;6100848;29;20796;-91
2023/06/28 09:08:39;;;;;;;2.58;1.33;;;;;;;19.11;100.00;100867.31;6089640;29;20052;-92
2023/06/28 09:11:41;;;;;;;3.42;1.35;;;;;;;19.14;100.00;100865.16;6112253;29;20055;-92
2023/06/28 09:14:43;;;;;;;5.20;1.38;;;;;;;19.24;100.00;100864.97;6111725;29;20204;-90
2023/06/28 09:17:45;;;;;;;3.03;1.20;;;;;;;19.30;100.00;100856.41;6109712;29;20055;-92
2023/06/28 09:20:54;;;;;;;5.30;1.70;;;;;;;19.48;100.00;100869.31;6115544;29;20048;-90
2023/06/28 09:23:57;;;;;;;3.03;1.27;;;;;;;19.67;100.00;100859.34;6110221;29;20656;-92
2023/06/28 09:27:06;;;;;;;3.72;1.35;;;;;;;19.89;100.00;100855.16;6104699;29;20043;-91
2023/06/28 09:30:09;;;;;;;4.97;1.33;;;;;;;19.97;100.00;100858.56;6104727;29;20044;-90
2023/06/28 09:33:11;;;;;;;3.92;1.35;;;;;;;19.97;100.00;100861.19;6110705;29;20046;-91
2023/06/28 09:36:13;;;;;;;3.53;1.10;;;;;;;19.99;100.00;100866.25;6118622;29;20044;-90
2023/06/28 09:39:15;;;;;;;3.90;1.50;;;;;;;20.06;100.00;100861.13;6109845;29;20510;-92
2023/06/28 09:42:16;;;;;;;4.05;1.60;;;;;;;20.19;100.00;100856.09;6118572;29;20040;-92
2023/06/28 09:45:41;;;;;;;2.05;1.33;;;;;;;20.35;100.00;100861.22;6116393;29;20059;-92
2023/06/28 09:48:48;;;;;;;4.53;1.40;;;;;;;20.56;100.00;100868.47;6103304;29;20039;-91
2023/06/28 09:52:06;;;;;;;3.55;1.60;;;;;;;20.78;100.00;100864.16;6115464;29;20550;-93
2023/06/28 09:55:09;;;;;;;4.53;1.38;;;;;;;20.90;100.00;100851.38;6113839;29;20055;-92
2023/06/28 09:58:20;;;;;;;6.75;1.60;;;;;;;21.07;100.00;100862.53;6111448;29;20056;-90
2023/06/28 10:01:23;;;;;;;3.30;1.25;;;;;;;21.33;100.00;100863.88;6113351;29;20078;-90
2023/06/28 10:04:27;;;;;;;3.72;1.52;;;;;;;21.49;100.00;100875.06;6110189;29;20094;-90
2023/06/28 10:07:30;;;;;;;4.55;1.50;;;;;;;21.36;100.00;100864.31;6097251;29;20134;-90
2023/06/28 10:10:37;;;;;;;3.42;1.67;;;;;;;20.92;100.00;100872.22;6110137;29;20051;-92
2023/06/28 10:13:41;;;;;;;2.92;1.52;;;;;;;20.76;100.00;100860.06;6101190;29;20135;-91
2023/06/28 10:16:45;;;;;;;3.88;1.60;;;;;;;20.92;100.00;100865.16;6112573;29;20052;-92
2023/06/28 10:19:48;;;;;;;2.25;1.80;;;;;;;21.13;100.00;100856.53;6110139;29;20051;-90
2023/06/28 10:22:50;;;;;;;5.03;1.85;;;;;;;21.27;100.00;100844.38;6109542;29;20052;-90
2023/06/28 10:25:54;;;;;;;3.60;1.50;;;;;;;21.38;100.00;100853.59;6110811;29;20071;-90
2023/06/28 10:28:58;;;;;;;4.30;1.30;;;;;;;21.30;100.00;100844.81;6111861;29;20040;-91
2023/06/28 10:32:01;;;;;;;3.72;1.90;;;;;;;21.22;100.00;100858.09;6109816;29;20039;-91
2023/06/28 10:35:06;;;;;;;5.40;1.63;;;;;;;21.27;100.00;100845.19;6105319;29;20040;-91
2023/06/28 10:38:09;;;;;;;2.75;1.42;;;;;;;21.25;100.00;100849.00;6101165;29;20040;-92
2023/06/28 10:41:15;;;;;;;3.35;1.40;;;;;;;21.20;100.00;100860.06;6093192;29;20044;-91
2023/06/28 10:44:17;;;;;;;2.78;1.48;;;;;;;21.26;100.00;100848.00;6103070;29;20039;-89
2023/06/28 10:47:19;;;;;;;3.42;1.30;;;;;;;21.33;100.00;100842.81;6100487;29;20051;-92
2023/06/28 10:50:23;;;;;;;4.53;1.55;;;;;;;21.45;100.00;100862.44;6108794;29;20117;-90
2023/06/28 10:53:26;;;;;;;2.42;1.17;;;;;;;21.54;100.00;100860.50;6112516;29;20043;-90
2023/06/28 10:56:35;;;;;;;5.68;1.40;;;;;;;21.68;100.00;100849.13;6108336;29;20173;-91
2023/06/28 10:59:41;;;;;;;1.73;1.10;;;;;;;21.85;100.00;100862.88;6110770;29;20106;-91
2023/06/28 11:03:03;;;;;;;3.95;1.60;;;;;;;22.25;100.00;100860.66;6109620;29;20040;-90
2023/06/28 11:06:07;;;;;;;2.72;1.50;;;;;;;22.69;100.00;100860.41;6176543;23;20055;-90
2023/06/28 11:09:17;;;;;;;4.43;1.30;;;;;;;23.04;100.00;100851.69;6135695;28;20054;-89
2023/06/28 11:12:19;;;;;;;4.95;1.60;;;;;;;23.33;100.00;100869.09;6135906;28;20068;-87
2023/06/28 11:15:28;;;;;;;3.33;1.58;;;;;;;23.16;100.00;100856.22;6138605;28;20057;-89
2023/06/28 11:18:30;;;;;;;2.88;1.50;;;;;;;22.96;100.00;100864.03;6141015;28;20046;-90
2023/06/28 11:21:32;;;;;;;1.70;1.60;;;;;;;22.90;100.00;100861.31;6145108;28;20133;-90
2023/06/28 11:24:36;;;;;;;4.30;1.83;;;;;;;23.13;100.00;100850.50;6146545;28;20054;-91
2023/06/28 11:27:45;;;;;;;2.17;1.60;;;;;;;22.99;100.00;100853.09;6148970;28;20507;-88
2023/06/28 11:30:50;;;;;;;2.38;2.00;;;;;;;22.87;100.00;100851.97;6154913;28;20043;-89
2023/06/28 11:33:54;;;;;;;2.92;1.90;;;;;;;22.94;100.00;100847.56;6147138;28;20609;-90
2023/06/28 11:36:57;;;;;;;2.47;1.83;;;;;;;23.04;100.00;100849.88;6132720;28;20696;-90
2023/06/28 11:39:59;;;;;;;3.00;1.90;;;;;;;23.25;100.00;100850.78;6144623;28;20109;-91
2023/06/28 11:43:01;;;;;;;2.03;1.70;;;;;;;23.71;100.00;100853.59;6147822;28;20794;-90
2023/06/28 11:46:04;;;;;;;2.50;1.52;;;;;;;23.81;100.00;100843.47;6140298;28;20066;-91
2023/06/28 11:49:07;;;;;;;3.70;1.85;;;;;;;24.19;100.00;100840.25;6138072;28;20039;-90
2023/06/28 11:52:10;;;;;;;3.28;1.70;;;;;;;24.47;100.00;100837.44;6119526;28;20039;-91
2023/06/28 11:55:15;;;;;;;5.50;1.63;;;;;;;24.98;100.00;100840.38;6130174;28;20147;-91
2023/06/28 11:58:36;;;;;;;3.30;1.92;;;;;;;25.39;100.00;100852.47;6138678;28;20053;-90
2023/06/28 12:01:41;;;;;;;4.38;1.40;;;;;;;25.37;100.00;100844.75;6147486;28;20050;-90
2023/06/28 12:04:57;;;;;;;2.58;1.77;;;;;;;25.27;100.00;100839.91;6160522;28;20413;-90
2023/06/28 12:07:59;;;;;;;3.35;1.50;;;;;;;25.30;100.00;100841.31;6149802;28;20053;-90
2023/06/28 12:11:08;;;;;;;4.18;1.60;;;;;;;25.41;100.00;100837.97;6151210;28;20126;-90
2023/06/28 12:14:10;;;;;;;3.17;1.42;;;;;;;25.44;99.74;100836.75;6124983;28;20425;-90
2023/06/28 12:17:12;;;;;;;1.40;1.17;;;;;;;25.26;100.00;100840.91;6144352;28;20058;-90
2023/06/28 12:20:14;;;;;;;1.42;1.17;;;;;;;25.12;100.00;100837.47;6137331;28;20495;-90
2023/06/28 12:23:16;;;;;;;2.88;1.40;;;;;;;25.44;100.00;100829.63;6139731;28;20055;-89
2023/06/28 12:26:24;;;;;;;1.60;1.23;;;;;;;26.08;100.00;100833.09;6125751;28;20039;-91
2023/06/28 12:29:29;;;;;;;2.95;1.42;;;;;;;26.25;100.00;100836.03;6131696;28;20502;-90
2023/06/28 12:32:31;;;;;;;1.98;1.48;;;;;;;26.37;100.00;100828.97;6122401;29;20043;-92
2023/06/28 12:35:34;;;;;;;3.58;1.33;;;;;;;26.71;100.00;100836.63;6134149;28;20531;-90
2023/06/28 12:38:42;;;;;;;3.40;1.65;;;;;;;26.67;100.00;100828.31;6131292;28;20044;-91
2023/06/28 12:42:03;;;;;;;2.13;1.10;;;;;;;26.91;98.74;100820.50;6129274;28;20126;-91
2023/06/28 12:45:06;;;;;;;2.25;1.20;;;;;;;27.08;100.00;100834.81;6126956;28;20090;-89
2023/06/28 12:48:08;;;;;;;2.45;1.38;;;;;;;26.77;93.30;100831.28;6145369;28;20454;-90
2023/06/28 12:51:10;;;;;;;1.55;1.00;;;;;;;26.75;96.39;100830.66;6135313;28;20035;-91
2023/06/28 12:54:13;;;;;;;2.40;1.30;;;;;;;26.91;95.41;100823.97;6144108;28;20047;-90
2023/06/28 12:57:16;;;;;;;3.83;1.70;;;;;;;26.45;99.60;100832.38;6131489;28;20505;-90
2023/06/28 13:00:19;;;;;;;3.13;1.58;;;;;;;25.73;100.00;100819.44;6137841;28;20062;-93
2023/06/28 13:03:21;;;;;;;2.65;1.35;;;;;;;25.27;100.00;100821.34;6134838;28;20035;-90
2023/06/28 13:06:24;;;;;;;1.67;1.02;;;;;;;25.23;100.00;100821.97;6132295;28;20035;-91
2023/06/28 13:09:25;;;;;;;4.25;1.27;;;;;;;25.35;100.00;100815.00;6136285;28;20039;-91
2023/06/28 13:12:27;;;;;;;2.38;1.00;;;;;;;25.65;100.00;100820.53;6147431;28;20047;-91
2023/06/28 13:15:29;;;;;;;2.60;1.10;;;;;;;26.21;100.00;100824.25;6132629;28;20062;-91
2023/06/28 13:18:32;;;;;;;4.10;1.30;;;;;;;26.29;100.00;100829.25;6156237;28;20055;-94
2023/06/28 13:21:34;;;;;;;3.65;1.52;;;;;;;26.46;96.97;100823.38;6144138;28;20043;-90
2023/06/28 13:24:36;;;;;;;2.80;1.80;;;;;;;26.26;100.00;100823.56;6142508;28;20660;-92
2023/06/28 13:27:38;;;;;;;3.28;1.60;;;;;;;26.31;100.00;100821.06;6134099;28;20482;-90
2023/06/28 13:30:40;;;;;;;3.35;1.58;;;;;;;26.22;100.00;100825.84;6141535;28;20043;-91
2023/06/28 13:33:42;;;;;;;2.03;1.30;;;;;;;25.95;100.00;100822.59;6136157;28;20055;-90
2023/06/28 13:36:44;;;;;;;4.70;1.33;;;;;;;26.42;100.00;100829.13;6141926;28;20488;-90
2023/06/28 13:39:46;;;;;;;2.65;1.30;;;;;;;26.63;100.00;100829.78;6142735;28;20047;-90
2023/06/28 13:42:48;;;;;;;2.10;1.27;;;;;;;26.65;100.00;100833.03;6147564;28;20049;-90
2023/06/28 13:45:50;;;;;;;5.05;1.70;;;;;;;26.55;100.00;100822.91;6141321;28;20055;-90
2023/06/28 13:48:53;;;;;;;5.35;1.50;;;;;;;26.31;100.00;100834.34;6150111;28;20038;-89
2023/06/28 13:51:55;;;;;;;2.60;2.03;;;;;;;26.20;100.00;100836.69;6142893;28;20405;-89
2023/06/28 13:54:57;;;;;;;3.55;1.50;;;;;;;26.46;100.00;100826.03;6148329;28;20546;-92
2023/06/28 13:57:59;;;;;;;3.65;1.58;;;;;;;26.68;97.78;100831.78;6132942;28;20465;-90
2023/06/28 14:01:01;;;;;;;3.42;1.55;;;;;;;26.61;100.00;100835.31;6142298;28;20039;-91